Time;durP1;ratioP1;P1;durP2;ratioP2;P2;SDS_P1;SDS_P2;PMS_P1;PMS_P2;Temp;Humidity;BMP_temperature;BMP_pressure;BME280_temperature;BME280_humidity;BME280_pressure;Samples;Min_cycle;Max_cycle;Signal;HPM_P1;HPM_P2
2023/02/23 00:04:44;;;;;;;12.82;9.02;;;;;;;;;;10414997;28;20095;-58
2023/02/23 00:09:46;;;;;;;17.85;9.60;;;;;;;;;;10414953;28;20082;-59
2023/02/23 00:14:46;;;;;;;12.25;8.50;;;;;;;;;;10414728;28;20037;-58
2023/02/23 00:19:48;;;;;;;13.77;9.65;;;;;;;;;;10414423;28;20051;-59
2023/02/23 00:24:49;;;;;;;14.52;9.20;;;;;;;;;;10414661;28;20022;-60
2023/02/23 00:29:49;;;;;;;15.40;9.00;;;;;;;;;;10413973;28;20037;-60
2023/02/23 00:34:50;;;;;;;13.40;8.77;;;;;;;;;;10412332;28;20056;-59
2023/02/23 00:39:55;;;;;;;13.20;8.73;;;;;;;;;;10413630;28;20025;-60
2023/02/23 00:44:56;;;;;;;14.00;9.38;;;;;;;;;;10413540;28;20021;-60
2023/02/23 00:49:56;;;;;;;12.90;9.25;;;;;;;;;;10404831;28;20389;-60
2023/02/23 00:54:57;;;;;;;12.75;8.85;;;;;;;;;;10410749;28;20049;-59
2023/02/23 00:59:58;;;;;;;14.02;8.18;;;;;;;;;;10411379;28;20022;-59
2023/02/23 01:04:58;;;;;;;16.45;9.07;;;;;;;;;;10412615;28;20026;-60
2023/02/23 01:09:59;;;;;;;12.45;8.23;;;;;;;;;;10411787;28;20025;-60
2023/02/23 01:15:02;;;;;;;15.68;9.50;;;;;;;;;;10412426;28;20021;-60
2023/02/23 01:20:14;;;;;;;10.30;8.80;;;;;;;;;;10411938;28;20056;-57
2023/02/23 01:25:15;;;;;;;13.50;9.00;;;;;;;;;;10411917;28;20401;-59
2023/02/23 01:30:16;;;;;;;11.63;8.27;;;;;;;;;;10412328;28;20033;-58
2023/02/23 01:35:17;;;;;;;14.25;8.50;;;;;;;;;;10411417;28;20042;-59
2023/02/23 01:40:30;;;;;;;15.52;8.98;;;;;;;;;;10411658;28;20025;-59
2023/02/23 01:45:35;;;;;;;13.65;8.77;;;;;;;;;;10411288;28;20112;-58
2023/02/23 01:50:49;;;;;;;10.65;8.40;;;;;;;;;;10402520;28;20386;-60
2023/02/23 01:56:18;;;;;;;15.25;8.32;;;;;;;;;;10410609;28;20385;-59
2023/02/23 02:01:20;;;;;;;14.45;8.95;;;;;;;;;;10411053;28;20009;-60
2023/02/23 02:06:27;;;;;;;13.73;9.85;;;;;;;;;;10396183;28;20022;-59
2023/02/23 02:11:35;;;;;;;14.00;9.98;;;;;;;;;;10401855;28;20029;-59
2023/02/23 02:17:01;;;;;;;13.73;10.00;;;;;;;;;;10401514;28;20026;-59
2023/02/23 02:22:38;;;;;;;13.82;9.55;;;;;;;;;;10406953;28;20481;-59
2023/02/23 02:28:03;;;;;;;16.08;9.57;;;;;;;;;;10409140;28;20107;-59
2023/02/23 02:33:31;;;;;;;14.65;9.35;;;;;;;;;;10405716;28;20048;-59
2023/02/23 02:38:55;;;;;;;13.80;9.43;;;;;;;;;;10400786;28;20136;-59
2023/02/23 02:44:25;;;;;;;12.27;9.52;;;;;;;;;;10407950;28;20115;-57
2023/02/23 02:50:13;;;;;;;12.43;9.30;;;;;;;;;;10407598;28;20037;-57
2023/02/23 02:55:22;;;;;;;14.52;9.93;;;;;;;;;;10321093;28;20298;-56
2023/02/23 04:21:49;;;;;;;12.35;8.85;;;;;;;;;;10406044;28;20354;-57
2023/02/23 04:26:50;;;;;;;9.75;8.00;;;;;;;;;;10406641;28;20626;-56
2023/02/23 04:31:52;;;;;;;12.38;8.77;;;;;;;;;;10406843;28;20029;-57
2023/02/23 04:36:53;;;;;;;12.52;8.90;;;;;;;;;;10406222;28;20048;-56
2023/02/23 04:41:53;;;;;;;11.73;8.35;;;;;;;;;;10407617;28;20484;-56
2023/02/23 04:46:56;;;;;;;9.80;7.72;;;;;;;;;;10413918;28;20584;-56
2023/02/23 04:51:57;;;;;;;11.55;8.27;;;;;;;;;;10412258;28;20033;-56
2023/02/23 04:56:57;;;;;;;10.75;8.70;;;;;;;;;;10413460;28;20495;-56
2023/02/23 05:01:58;;;;;;;10.25;8.23;;;;;;;;;;10413241;28;20096;-57
2023/02/23 05:06:59;;;;;;;11.45;8.10;;;;;;;;;;10412863;28;20268;-56
2023/02/23 05:12:00;;;;;;;10.73;7.75;;;;;;;;;;10412840;28;20029;-57
2023/02/23 05:17:00;;;;;;;9.88;7.95;;;;;;;;;;10407643;28;20025;-56
2023/02/23 05:22:01;;;;;;;10.75;8.57;;;;;;;;;;10412361;28;20389;-56
2023/02/23 05:27:02;;;;;;;13.95;8.00;;;;;;;;;;10412154;28;20030;-56
2023/02/23 05:32:02;;;;;;;11.48;8.57;;;;;;;;;;10412402;28;20457;-56
2023/02/23 05:37:03;;;;;;;10.20;8.07;;;;;;;;;;10411777;28;20061;-57
2023/02/23 05:42:04;;;;;;;9.40;7.57;;;;;;;;;;10411507;28;20511;-57
2023/02/23 05:47:04;;;;;;;12.27;7.68;;;;;;;;;;10411297;28;20457;-60
2023/02/23 05:52:05;;;;;;;10.07;7.95;;;;;;;;;;10410875;28;20013;-57
2023/02/23 05:57:07;;;;;;;9.93;7.70;;;;;;;;;;10409990;28;20033;-57
2023/02/23 06:02:07;;;;;;;9.50;7.47;;;;;;;;;;10411004;28;20017;-57
2023/02/23 06:07:08;;;;;;;10.68;8.30;;;;;;;;;;10407465;28;20424;-60
2023/02/23 06:12:08;;;;;;;11.77;8.05;;;;;;;;;;10409401;28;20363;-57
2023/02/23 06:17:09;;;;;;;9.73;7.60;;;;;;;;;;10409629;28;20444;-60
2023/02/23 06:22:10;;;;;;;10.20;7.63;;;;;;;;;;10409813;28;20504;-60
2023/02/23 06:27:11;;;;;;;11.88;8.30;;;;;;;;;;10409424;28;20029;-61
2023/02/23 06:32:11;;;;;;;9.20;7.47;;;;;;;;;;10409253;28;20029;-60
2023/02/23 06:37:12;;;;;;;14.35;9.35;;;;;;;;;;10406924;28;20512;-61
2023/02/23 06:42:12;;;;;;;25.30;10.63;;;;;;;;;;10407585;28;20067;-49
2023/02/23 06:47:13;;;;;;;16.83;10.82;;;;;;;;;;10408031;28;20626;-60
2023/02/23 06:52:13;;;;;;;16.13;11.65;;;;;;;;;;10408372;28;20428;-62
2023/02/23 06:57:14;;;;;;;17.80;12.85;;;;;;;;;;10405386;28;20072;-62
2023/02/23 07:02:15;;;;;;;17.85;12.70;;;;;;;;;;10403908;28;20029;-62
2023/02/23 07:07:15;;;;;;;22.23;14.73;;;;;;;;;;10405357;28;20025;-60
2023/02/23 07:12:16;;;;;;;20.75;14.95;;;;;;;;;;10407702;28;20080;-59
2023/02/23 07:17:17;;;;;;;26.63;17.48;;;;;;;;;;10403591;28;20030;-60
2023/02/23 07:22:17;;;;;;;28.02;17.95;;;;;;;;;;10398825;28;20030;-59
2023/02/23 07:27:18;;;;;;;29.48;18.05;;;;;;;;;;10404463;28;20037;-59
2023/02/23 07:32:18;;;;;;;41.53;21.35;;;;;;;;;;10407380;28;20033;-59
2023/02/23 07:37:20;;;;;;;35.25;20.05;;;;;;;;;;10406442;28;20044;-59
2023/02/23 07:42:20;;;;;;;32.65;19.10;;;;;;;;;;10403558;28;20029;-59
2023/02/23 07:47:29;;;;;;;32.25;20.20;;;;;;;;;;10406959;28;20024;-58
2023/02/23 07:52:29;;;;;;;39.55;20.23;;;;;;;;;;10407324;28;20028;-57
2023/02/23 07:57:30;;;;;;;38.58;20.27;;;;;;;;;;10407043;28;20029;-57
2023/02/23 08:02:31;;;;;;;39.25;20.42;;;;;;;;;;10406973;28;20497;-57
2023/02/23 08:07:32;;;;;;;32.90;20.63;;;;;;;;;;10406659;28;20036;-58
2023/02/23 08:12:33;;;;;;;36.53;19.45;;;;;;;;;;10406984;28;20029;-59
2023/02/23 08:17:35;;;;;;;35.80;21.00;;;;;;;;;;10401848;28;20090;-57
2023/02/23 08:22:36;;;;;;;38.42;19.83;;;;;;;;;;10414265;28;20389;-57
2023/02/23 08:27:38;;;;;;;31.77;20.58;;;;;;;;;;10414425;28;20039;-59
2023/02/23 08:32:39;;;;;;;33.63;21.02;;;;;;;;;;10414441;28;20065;-59
2023/02/23 08:37:40;;;;;;;35.88;21.80;;;;;;;;;;10414205;28;20137;-55
2023/02/23 08:42:42;;;;;;;33.85;21.33;;;;;;;;;;10414003;28;20508;-56
2023/02/23 08:47:43;;;;;;;38.47;21.60;;;;;;;;;;10413219;28;20482;-60
2023/02/23 08:52:43;;;;;;;40.85;21.45;;;;;;;;;;10413449;28;20021;-60
2023/02/23 08:57:44;;;;;;;34.58;22.33;;;;;;;;;;10413725;28;20037;-59
2023/02/23 09:02:48;;;;;;;40.97;21.38;;;;;;;;;;10413327;28;20025;-58
2023/02/23 09:07:49;;;;;;;37.80;21.30;;;;;;;;;;10413011;28;20029;-58
2023/02/23 09:12:50;;;;;;;37.63;21.88;;;;;;;;;;10412526;28;20032;-59
2023/02/23 09:17:51;;;;;;;38.42;22.77;;;;;;;;;;10402888;28;20018;-60
2023/02/23 09:22:52;;;;;;;35.45;23.15;;;;;;;;;;10412363;28;20029;-56
2023/02/23 09:27:55;;;;;;;35.63;21.65;;;;;;;;;;10411953;28;20025;-57
2023/02/23 09:32:56;;;;;;;36.38;22.00;;;;;;;;;;10412043;28;20562;-57
2023/02/23 09:37:57;;;;;;;41.20;23.05;;;;;;;;;;10411491;28;20042;-57
2023/02/23 09:43:17;;;;;;;31.15;20.65;;;;;;;;;;10411701;28;20097;-57
2023/02/23 09:48:22;;;;;;;37.47;24.15;;;;;;;;;;10410185;28;20556;-57
2023/02/23 09:53:32;;;;;;;43.35;23.52;;;;;;;;;;10409762;28;20153;-55
2023/02/23 09:58:34;;;;;;;33.95;22.65;;;;;;;;;;10411171;28;20041;-55
2023/02/23 10:03:41;;;;;;;34.28;22.27;;;;;;;;;;10409512;28;20469;-56
2023/02/23 10:09:04;;;;;;;;;;;;;;;;;;10410207;28;20063;-56
2023/02/23 10:14:32;;;;;;;39.72;22.48;;;;;;;;;;10397735;28;19914;-56
2023/02/23 10:19:55;;;;;;;34.23;21.43;;;;;;;;;;10400408;28;20048;-56
2023/02/23 10:25:10;;;;;;;32.47;22.15;;;;;;;;;;10410233;28;20459;-57
2023/02/23 10:30:30;;;;;;;35.08;22.90;;;;;;;;;;10408432;28;20135;-56
2023/02/23 10:35:31;;;;;;;37.38;23.15;;;;;;;;;;10411136;23;20540;-68
2023/02/23 10:40:34;;;;;;;47.38;23.35;;;;;;;;;;10368448;28;20045;-69
2023/02/23 10:45:45;;;;;;;34.05;22.55;;;;;;;;;;10368373;28;20034;-70
2023/02/23 10:50:48;;;;;;;39.20;22.73;;;;;;;;;;10366960;28;20034;-70
2023/02/23 10:56:14;;;;;;;38.55;23.50;;;;;;;;;;10367021;28;20041;-70
2023/02/23 11:01:43;;;;;;;31.08;22.77;;;;;;;;;;10366824;28;20030;-70
2023/02/23 11:06:44;;;;;;;34.58;21.92;;;;;;;;;;10367352;28;20032;-69
2023/02/23 11:12:01;;;;;;;34.42;23.33;;;;;;;;;;10366757;28;20406;-69
2023/02/23 11:17:02;;;;;;;33.75;23.80;;;;;;;;;;10358146;28;20022;-69
2023/02/23 11:22:04;;;;;;;31.83;23.30;;;;;;;;;;10367253;28;20029;-67
2023/02/23 11:27:19;;;;;;;33.42;22.90;;;;;;;;;;10365653;28;20129;-67
2023/02/23 11:32:37;;;;;;;34.38;22.38;;;;;;;;;;10365571;28;20024;-65
2023/02/23 11:37:38;;;;;;;33.42;24.15;;;;;;;;;;10365191;28;20046;-62
2023/02/23 11:43:05;;;;;;;34.00;22.48;;;;;;;;;;10366629;28;20036;-62
2023/02/23 11:48:05;;;;;;;34.80;22.58;;;;;;;;;;10366477;28;20030;-62
2023/02/23 11:53:18;;;;;;;34.03;22.30;;;;;;;;;;10375117;28;20115;-62
2023/02/23 11:58:32;;;;;;;32.70;21.77;;;;;;;;;;10379368;28;20029;-62
2023/02/23 12:03:33;;;;;;;33.72;22.13;;;;;;;;;;10378926;28;20034;-62
2023/02/23 12:08:42;;;;;;;32.83;22.45;;;;;;;;;;10378185;28;20483;-68
2023/02/23 12:13:53;;;;;;;31.27;22.48;;;;;;;;;;10372351;28;20050;-62
2023/02/23 12:18:53;;;;;;;34.60;22.30;;;;;;;;;;10393229;28;20378;-69
2023/02/23 12:24:29;;;;;;;33.10;23.00;;;;;;;;;;10379296;28;20096;-69
2023/02/23 12:29:43;;;;;;;35.22;21.65;;;;;;;;;;10369020;28;20025;-68
2023/02/23 12:34:43;;;;;;;31.92;22.75;;;;;;;;;;10379255;28;20180;-67
2023/02/23 12:39:51;;;;;;;34.13;21.83;;;;;;;;;;10379316;28;20474;-69
2023/02/23 12:44:56;;;;;;;33.63;22.80;;;;;;;;;;10376569;28;20417;-68
2023/02/23 12:50:15;;;;;;;36.20;23.08;;;;;;;;;;10348828;28;20045;-70
2023/02/23 12:55:37;;;;;;;37.17;23.65;;;;;;;;;;10379133;28;20030;-69
2023/02/23 13:00:51;;;;;;;33.80;22.50;;;;;;;;;;10377656;28;20038;-70
2023/02/23 13:06:06;;;;;;;35.00;24.08;;;;;;;;;;10366544;28;20105;-68
2023/02/23 13:11:23;;;;;;;35.63;24.42;;;;;;;;;;10378978;28;20026;-69
2023/02/23 13:16:58;;;;;;;35.53;23.33;;;;;;;;;;10349865;28;20034;-68
2023/02/23 13:22:49;;;;;;;33.13;23.05;;;;;;;;;;10372117;28;20125;-69
2023/02/23 13:27:58;;;;;;;31.83;23.02;;;;;;;;;;10336064;28;20413;-68
2023/02/23 13:33:11;;;;;;;36.38;23.23;;;;;;;;;;10367865;28;20104;-69
2023/02/23 13:38:58;;;;;;;38.10;24.77;;;;;;;;;;10353906;28;20508;-69
2023/02/23 13:44:19;;;;;;;34.40;23.98;;;;;;;;;;10337178;28;20035;-69
2023/02/23 13:49:50;;;;;;;32.95;22.33;;;;;;;;;;10360030;28;20064;-67
2023/02/23 13:55:02;;;;;;;37.25;22.80;;;;;;;;;;10367750;28;20045;-69
2023/02/23 14:00:03;;;;;;;41.38;24.38;;;;;;;;;;10362122;28;20113;-70
2023/02/23 14:05:21;;;;;;;34.75;22.63;;;;;;;;;;10367232;28;20065;-68
2023/02/23 14:10:26;;;;;;;32.50;23.60;;;;;;;;;;10368098;28;20025;-65
2023/02/23 14:15:34;;;;;;;34.90;23.90;;;;;;;;;;10361931;28;20068;-69
2023/02/23 14:20:37;;;;;;;32.27;22.73;;;;;;;;;;10367371;28;20123;-69
2023/02/23 14:26:02;;;;;;;35.15;24.38;;;;;;;;;;10368494;28;20358;-70
2023/02/23 14:31:12;;;;;;;31.85;22.58;;;;;;;;;;10368589;28;20054;-69
2023/02/23 14:36:28;;;;;;;34.53;22.92;;;;;;;;;;10366117;28;20068;-69
2023/02/23 14:41:34;;;;;;;32.95;22.67;;;;;;;;;;10366484;28;20068;-68
2023/02/23 14:46:36;;;;;;;33.13;22.67;;;;;;;;;;10366290;28;20018;-69
2023/02/23 14:51:45;;;;;;;36.17;22.98;;;;;;;;;;10367025;28;20064;-70
2023/02/23 14:56:50;;;;;;;32.17;21.92;;;;;;;;;;10364338;28;20049;-69
2023/02/23 15:01:52;;;;;;;31.17;21.75;;;;;;;;;;10367507;28;20060;-70
2023/02/23 15:06:56;;;;;;;35.03;23.23;;;;;;;;;;10367388;28;20021;-70
2023/02/23 15:12:01;;;;;;;33.80;19.55;;;;;;;;;;10365746;28;20048;-70
2023/02/23 15:17:02;;;;;;;31.73;21.48;;;;;;;;;;10362010;28;20473;-68
2023/02/23 15:22:04;;;;;;;30.85;21.05;;;;;;;;;;10366996;28;20041;-69
2023/02/23 15:27:05;;;;;;;30.83;20.30;;;;;;;;;;10365964;28;20386;-67
2023/02/23 15:32:24;;;;;;;30.63;20.48;;;;;;;;;;10366849;28;20025;-70
2023/02/23 15:37:39;;;;;;;29.40;21.02;;;;;;;;;;10363754;28;20414;-68
2023/02/23 15:42:55;;;;;;;31.02;20.27;;;;;;;;;;10365703;28;20508;-69
2023/02/23 15:47:59;;;;;;;30.27;20.75;;;;;;;;;;10363546;28;20036;-70
2023/02/23 15:53:26;;;;;;;30.20;20.02;;;;;;;;;;10363982;28;20393;-69
2023/02/23 15:58:31;;;;;;;28.63;20.17;;;;;;;;;;10363995;28;20026;-68
2023/02/23 16:03:42;;;;;;;42.33;20.02;;;;;;;;;;10366145;28;20025;-71
2023/02/23 16:09:04;;;;;;;66.05;24.17;;;;;;;;;;10380337;28;20040;-72
2023/02/23 16:14:15;;;;;;;84.93;25.17;;;;;;;;;;10362527;28;20034;-65
2023/02/23 16:19:18;;;;;;;60.42;24.83;;;;;;;;;;10359637;28;20026;-65
2023/02/23 16:24:24;;;;;;;47.72;24.15;;;;;;;;;;10363458;28;20030;-65
2023/02/23 16:29:40;;;;;;;54.03;24.40;;;;;;;;;;10363842;28;20046;-65
2023/02/23 16:35:07;;;;;;;41.50;21.38;;;;;;;;;;10364245;28;20033;-65
2023/02/23 16:40:12;;;;;;;41.33;22.73;;;;;;;;;;10367378;28;20044;-65
2023/02/23 16:45:15;;;;;;;36.88;21.40;;;;;;;;;;10369602;28;20114;-65
2023/02/23 16:50:21;;;;;;;36.88;21.38;;;;;;;;;;10370064;28;20025;-65
2023/02/23 16:55:26;;;;;;;33.78;20.45;;;;;;;;;;10370196;28;20026;-64
2023/02/23 17:00:31;;;;;;;32.33;20.60;;;;;;;;;;10368307;28;20041;-64
2023/02/23 17:05:32;;;;;;;35.20;20.48;;;;;;;;;;10370612;28;20130;-64
2023/02/23 17:10:34;;;;;;;36.63;19.80;;;;;;;;;;10370744;28;20030;-64
2023/02/23 17:15:38;;;;;;;35.22;20.33;;;;;;;;;;10368114;28;20030;-64
2023/02/23 17:20:39;;;;;;;35.10;19.38;;;;;;;;;;10368370;28;20111;-64
2023/02/23 17:25:41;;;;;;;31.60;20.33;;;;;;;;;;10366436;28;20030;-64
2023/02/23 17:30:43;;;;;;;28.15;17.95;;;;;;;;;;10366718;28;20033;-64
2023/02/23 17:35:44;;;;;;;31.48;17.88;;;;;;;;;;10367704;28;20042;-64
2023/02/23 17:40:45;;;;;;;25.25;18.45;;;;;;;;;;10363137;28;20156;-64
2023/02/23 17:45:47;;;;;;;26.42;17.88;;;;;;;;;;10357277;28;20563;-65
2023/02/23 17:50:54;;;;;;;28.65;17.35;;;;;;;;;;10365921;28;20036;-65
2023/02/23 17:55:55;;;;;;;28.85;18.60;;;;;;;;;;10369484;28;20045;-63
2023/02/23 18:01:00;;;;;;;29.13;19.92;;;;;;;;;;10369808;28;20056;-73
2023/02/23 18:06:08;;;;;;;29.33;19.33;;;;;;;;;;10367835;28;20025;-72
2023/02/23 18:11:09;;;;;;;29.15;19.02;;;;;;;;;;10368853;28;20058;-70
2023/02/23 18:16:10;;;;;;;30.08;19.00;;;;;;;;;;10357347;28;20382;-67
2023/02/23 18:21:15;;;;;;;27.02;18.15;;;;;;;;;;10361755;28;20570;-68
2023/02/23 18:26:22;;;;;;;26.48;17.88;;;;;;;;;;10366241;28;20490;-68
2023/02/23 18:31:28;;;;;;;25.90;17.95;;;;;;;;;;10349425;28;20045;-68
2023/02/23 18:36:34;;;;;;;25.45;17.63;;;;;;;;;;10360058;28;20085;-68
2023/02/23 18:41:34;;;;;;;24.15;18.00;;;;;;;;;;10363902;28;20406;-68
2023/02/23 18:46:35;;;;;;;26.10;17.63;;;;;;;;;;10364854;28;20026;-69
2023/02/23 18:51:36;;;;;;;22.63;16.30;;;;;;;;;;10361667;28;20041;-69
2023/02/23 18:56:37;;;;;;;22.17;16.13;;;;;;;;;;10359779;28;20041;-66
2023/02/23 19:01:38;;;;;;;28.73;16.30;;;;;;;;;;10362490;28;20049;-68
2023/02/23 19:06:42;;;;;;;34.58;18.20;;;;;;;;;;10349199;28;20129;-69
2023/02/23 19:11:43;;;;;;;34.20;19.92;;;;;;;;;;10365689;28;20037;-69
2023/02/23 19:16:45;;;;;;;34.80;19.02;;;;;;;;;;10362117;28;20088;-68
2023/02/23 19:21:46;;;;;;;34.80;18.38;;;;;;;;;;10358069;28;20044;-73
2023/02/23 19:26:46;;;;;;;33.13;20.25;;;;;;;;;;10365057;28;20033;-63
2023/02/23 19:31:48;;;;;;;39.58;19.90;;;;;;;;;;10365250;28;20029;-64
2023/02/23 19:36:49;;;;;;;41.38;20.92;;;;;;;;;;10362488;28;20125;-64
2023/02/23 19:46:56;;;;;;;40.70;20.45;;;;;;;;;;10425820;28;20187;-64
2023/02/23 19:51:57;;;;;;;37.17;19.45;;;;;;;;;;10428952;28;20095;-63
2023/02/23 19:56:57;;;;;;;35.40;19.38;;;;;;;;;;10388898;28;20392;-64
2023/02/23 20:01:58;;;;;;;33.63;18.17;;;;;;;;;;10402498;28;20048;-63
2023/02/23 20:06:58;;;;;;;37.15;20.38;;;;;;;;;;10406459;28;20228;-63
2023/02/23 20:11:59;;;;;;;38.22;19.20;;;;;;;;;;10408494;28;20420;-63
2023/02/23 20:17:00;;;;;;;38.13;20.05;;;;;;;;;;10415365;28;20427;-62
2023/02/23 20:22:00;;;;;;;38.35;19.75;;;;;;;;;;10414648;28;20399;-60
2023/02/23 20:27:01;;;;;;;31.70;19.77;;;;;;;;;;10404870;28;20034;-60
2023/02/23 20:32:04;;;;;;;31.73;18.48;;;;;;;;;;10414664;28;20026;-60
2023/02/23 20:37:05;;;;;;;31.38;18.55;;;;;;;;;;10413621;28;20051;-60
2023/02/23 20:42:05;;;;;;;38.33;18.20;;;;;;;;;;10413501;28;20117;-61
2023/02/23 20:47:08;;;;;;;28.48;18.10;;;;;;;;;;10413581;28;20032;-62
2023/02/23 20:52:11;;;;;;;30.65;18.88;;;;;;;;;;10413586;28;20029;-61
2023/02/23 20:57:11;;;;;;;31.23;18.90;;;;;;;;;;10412468;28;20123;-62
2023/02/23 21:02:14;;;;;;;32.60;19.42;;;;;;;;;;10411737;28;20034;-60
2023/02/23 21:07:14;;;;;;;43.00;21.30;;;;;;;;;;10402663;28;20033;-60
2023/02/23 21:12:15;;;;;;;35.42;18.83;;;;;;;;;;10412908;28;20507;-61
2023/02/23 21:17:16;;;;;;;36.20;20.10;;;;;;;;;;10412595;28;20017;-62
2023/02/23 21:22:16;;;;;;;37.10;18.23;;;;;;;;;;10412504;28;20060;-64
2023/02/23 21:27:17;;;;;;;32.63;18.45;;;;;;;;;;10411234;28;20434;-63
2023/02/23 21:32:18;;;;;;;33.20;18.58;;;;;;;;;;10407495;28;20056;-64
2023/02/23 21:37:19;;;;;;;30.05;17.35;;;;;;;;;;10412351;28;20367;-63
2023/02/23 21:42:20;;;;;;;27.83;17.55;;;;;;;;;;10411612;28;20100;-64
2023/02/23 21:47:21;;;;;;;27.38;15.45;;;;;;;;;;10411315;28;20033;-63
2023/02/23 21:52:21;;;;;;;28.92;16.15;;;;;;;;;;10408710;28;20037;-64
2023/02/23 21:57:24;;;;;;;26.52;15.75;;;;;;;;;;10411016;28;20030;-64
2023/02/23 22:02:29;;;;;;;26.90;17.45;;;;;;;;;;10405582;28;20037;-64
2023/02/23 22:07:31;;;;;;;30.42;19.02;;;;;;;;;;10405432;28;20030;-64
2023/02/23 22:12:32;;;;;;;32.40;18.63;;;;;;;;;;10410178;28;20273;-61
2023/02/23 22:17:32;;;;;;;31.75;18.48;;;;;;;;;;10401286;28;20042;-58
2023/02/23 22:22:36;;;;;;;25.20;17.10;;;;;;;;;;10406775;28;20021;-61
2023/02/23 22:27:37;;;;;;;30.90;18.08;;;;;;;;;;10404987;28;20428;-61
2023/02/23 22:32:38;;;;;;;28.00;17.08;;;;;;;;;;10407805;28;20052;-61
2023/02/23 22:37:38;;;;;;;26.77;17.15;;;;;;;;;;10406393;28;20072;-61
2023/02/23 22:42:42;;;;;;;28.30;16.88;;;;;;;;;;10398529;28;20052;-63
2023/02/23 22:47:42;;;;;;;25.02;17.13;;;;;;;;;;10401396;28;20041;-60
2023/02/23 22:52:44;;;;;;;25.45;16.23;;;;;;;;;;10403667;28;20385;-62
2023/02/23 22:57:46;;;;;;;25.70;15.73;;;;;;;;;;10386501;28;20061;-62
2023/02/23 23:02:47;;;;;;;27.13;16.10;;;;;;;;;;10407735;28;20116;-60
2023/02/23 23:07:47;;;;;;;23.17;16.50;;;;;;;;;;10405842;28;20450;-60
2023/02/23 23:12:48;;;;;;;28.42;15.63;;;;;;;;;;10405554;28;20021;-60
2023/02/23 23:17:49;;;;;;;25.10;14.57;;;;;;;;;;10407820;28;20021;-60
2023/02/23 23:22:50;;;;;;;21.50;14.57;;;;;;;;;;10407444;28;20025;-60
2023/02/23 23:27:51;;;;;;;23.80;15.05;;;;;;;;;;10407476;28;20025;-66
2023/02/23 23:32:51;;;;;;;23.42;14.32;;;;;;;;;;10407565;28;20040;-66
2023/02/23 23:37:52;;;;;;;21.35;14.38;;;;;;;;;;10378866;28;20033;-65
2023/02/23 23:42:54;;;;;;;21.15;14.23;;;;;;;;;;10398509;28;20040;-66
2023/02/23 23:47:55;;;;;;;18.80;13.90;;;;;;;;;;10406488;28;20456;-68
2023/02/23 23:52:55;;;;;;;25.00;14.85;;;;;;;;;;10401872;28;20017;-67
2023/02/23 23:57:56;;;;;;;24.60;15.30;;;;;;;;;;10406488;28;20029;-67
